sensor_id;sensor_type;location;lat;lon;timestamp;P1;durP1;ratioP1;P2;durP2;ratioP2
41865;SDS011;27539;43.222;27.558;2023-07-29T00:00:39;1.00;;;0.93;;
41865;SDS011;27539;43.222;27.558;2023-07-29T00:03:05;1.10;;;1.00;;
41865;SDS011;27539;43.222;27.558;2023-07-29T00:05:30;1.10;;;0.80;;
41865;SDS011;27539;43.222;27.558;2023-07-29T00:07:56;1.08;;;1.08;;
41865;SDS011;27539;43.222;27.558;2023-07-29T00:10:21;1.73;;;0.88;;
41865;SDS011;27539;43.222;27.558;2023-07-29T00:12:47;1.20;;;1.10;;
41865;SDS011;27539;43.222;27.558;2023-07-29T00:15:13;0.73;;;0.73;;
41865;SDS011;27539;43.222;27.558;2023-07-29T00:17:38;1.48;;;1.10;;
41865;SDS011;27539;43.222;27.558;2023-07-29T00:20:04;2.47;;;1.10;;
41865;SDS011;27539;43.222;27.558;2023-07-29T00:22:30;1.48;;;1.10;;
41865;SDS011;27539;43.222;27.558;2023-07-29T00:24:56;1.55;;;1.45;;
41865;SDS011;27539;43.222;27.558;2023-07-29T00:27:22;1.10;;;1.02;;
41865;SDS011;27539;43.222;27.558;2023-07-29T00:29:48;0.88;;;0.88;;
41865;SDS011;27539;43.222;27.558;2023-07-29T00:32:14;0.85;;;0.85;;
41865;SDS011;27539;43.222;27.558;2023-07-29T00:34:40;1.27;;;1.02;;
41865;SDS011;27539;43.222;27.558;2023-07-29T00:37:05;1.02;;;0.73;;
41865;SDS011;27539;43.222;27.558;2023-07-29T00:39:31;1.20;;;1.10;;
41865;SDS011;27539;43.222;27.558;2023-07-29T00:41:57;0.70;;;0.70;;
41865;SDS011;27539;43.222;27.558;2023-07-29T00:44:23;0.80;;;0.80;;
41865;SDS011;27539;43.222;27.558;2023-07-29T00:46:49;1.10;;;1.00;;
41865;SDS011;27539;43.222;27.558;2023-07-29T00:49:17;0.68;;;0.65;;
41865;SDS011;27539;43.222;27.558;2023-07-29T00:51:43;1.77;;;1.10;;
41865;SDS011;27539;43.222;27.558;2023-07-29T00:54:08;0.88;;;0.77;;
41865;SDS011;27539;43.222;27.558;2023-07-29T00:56:34;0.80;;;0.80;;
41865;SDS011;27539;43.222;27.558;2023-07-29T00:59:01;0.80;;;0.80;;
41865;SDS011;27539;43.222;27.558;2023-07-29T01:01:30;0.90;;;0.65;;
41865;SDS011;27539;43.222;27.558;2023-07-29T01:03:56;1.63;;;1.05;;
41865;SDS011;27539;43.222;27.558;2023-07-29T01:06:28;2.00;;;0.77;;
41865;SDS011;27539;43.222;27.558;2023-07-29T01:09:31;0.93;;;0.85;;
41865;SDS011;27539;43.222;27.558;2023-07-29T01:12:03;0.38;;;0.38;;
41865;SDS011;27539;43.222;27.558;2023-07-29T01:17:34;3.05;;;0.82;;
41865;SDS011;27539;43.222;27.558;2023-07-29T01:20:20;1.10;;;1.00;;
41865;SDS011;27539;43.222;27.558;2023-07-29T01:22:50;2.88;;;0.98;;
41865;SDS011;27539;43.222;27.558;2023-07-29T01:25:16;4.40;;;1.25;;
41865;SDS011;27539;43.222;27.558;2023-07-29T01:27:42;2.92;;;1.33;;
41865;SDS011;27539;43.222;27.558;2023-07-29T01:30:10;0.88;;;0.88;;
41865;SDS011;27539;43.222;27.558;2023-07-29T01:35:24;1.42;;;1.33;;
41865;SDS011;27539;43.222;27.558;2023-07-29T01:38:02;1.55;;;1.40;;
41865;SDS011;27539;43.222;27.558;2023-07-29T01:40:30;1.85;;;1.38;;
41865;SDS011;27539;43.222;27.558;2023-07-29T01:42:56;2.30;;;1.40;;
41865;SDS011;27539;43.222;27.558;2023-07-29T01:45:25;1.02;;;0.93;;
41865;SDS011;27539;43.222;27.558;2023-07-29T01:47:51;2.35;;;1.88;;
41865;SDS011;27539;43.222;27.558;2023-07-29T01:50:17;2.55;;;2.10;;
41865;SDS011;27539;43.222;27.558;2023-07-29T01:52:42;3.08;;;1.20;;
41865;SDS011;27539;43.222;27.558;2023-07-29T01:55:08;1.83;;;1.70;;
41865;SDS011;27539;43.222;27.558;2023-07-29T01:57:33;2.50;;;1.83;;
41865;SDS011;27539;43.222;27.558;2023-07-29T01:59:59;3.00;;;1.80;;
41865;SDS011;27539;43.222;27.558;2023-07-29T02:02:24;2.28;;;2.08;;
41865;SDS011;27539;43.222;27.558;2023-07-29T02:04:50;1.73;;;1.45;;
41865;SDS011;27539;43.222;27.558;2023-07-29T02:07:17;1.90;;;1.55;;
41865;SDS011;27539;43.222;27.558;2023-07-29T02:09:44;1.58;;;1.40;;
41865;SDS011;27539;43.222;27.558;2023-07-29T02:12:09;2.88;;;1.80;;
41865;SDS011;27539;43.222;27.558;2023-07-29T02:14:35;2.45;;;1.80;;
41865;SDS011;27539;43.222;27.558;2023-07-29T02:17:00;2.40;;;1.90;;
41865;SDS011;27539;43.222;27.558;2023-07-29T02:19:26;2.58;;;2.17;;
41865;SDS011;27539;43.222;27.558;2023-07-29T02:21:51;2.88;;;1.73;;
41865;SDS011;27539;43.222;27.558;2023-07-29T02:24:17;2.63;;;1.90;;
41865;SDS011;27539;43.222;27.558;2023-07-29T02:26:42;2.65;;;2.30;;
41865;SDS011;27539;43.222;27.558;2023-07-29T02:29:08;2.00;;;1.80;;
41865;SDS011;27539;43.222;27.558;2023-07-29T02:31:33;2.78;;;2.50;;
41865;SDS011;27539;43.222;27.558;2023-07-29T02:33:59;2.28;;;2.08;;
41865;SDS011;27539;43.222;27.558;2023-07-29T02:36:25;2.47;;;2.25;;
41865;SDS011;27539;43.222;27.558;2023-07-29T02:38:50;2.53;;;2.13;;
41865;SDS011;27539;43.222;27.558;2023-07-29T02:41:16;2.10;;;1.90;;
41865;SDS011;27539;43.222;27.558;2023-07-29T02:43:42;2.42;;;1.90;;
41865;SDS011;27539;43.222;27.558;2023-07-29T02:46:08;4.97;;;2.28;;
41865;SDS011;27539;43.222;27.558;2023-07-29T02:48:34;1.65;;;1.55;;
41865;SDS011;27539;43.222;27.558;2023-07-29T02:51:00;2.17;;;1.63;;
41865;SDS011;27539;43.222;27.558;2023-07-29T02:53:25;3.60;;;2.20;;
41865;SDS011;27539;43.222;27.558;2023-07-29T02:55:51;2.30;;;2.10;;
41865;SDS011;27539;43.222;27.558;2023-07-29T02:58:16;3.63;;;2.17;;
41865;SDS011;27539;43.222;27.558;2023-07-29T03:00:42;2.80;;;1.98;;
41865;SDS011;27539;43.222;27.558;2023-07-29T03:03:08;2.17;;;1.98;;
41865;SDS011;27539;43.222;27.558;2023-07-29T03:05:34;4.80;;;2.78;;
41865;SDS011;27539;43.222;27.558;2023-07-29T03:08:00;2.63;;;2.42;;
41865;SDS011;27539;43.222;27.558;2023-07-29T03:10:25;2.40;;;2.20;;
41865;SDS011;27539;43.222;27.558;2023-07-29T03:12:52;2.38;;;2.10;;
41865;SDS011;27539;43.222;27.558;2023-07-29T03:15:22;1.77;;;1.67;;
41865;SDS011;27539;43.222;27.558;2023-07-29T03:17:48;2.55;;;2.15;;
41865;SDS011;27539;43.222;27.558;2023-07-29T03:20:14;2.55;;;2.20;;
41865;SDS011;27539;43.222;27.558;2023-07-29T03:22:40;2.05;;;1.83;;
41865;SDS011;27539;43.222;27.558;2023-07-29T03:25:05;2.22;;;2.03;;
41865;SDS011;27539;43.222;27.558;2023-07-29T03:27:31;1.92;;;1.42;;
41865;SDS011;27539;43.222;27.558;2023-07-29T03:29:57;3.47;;;1.73;;
41865;SDS011;27539;43.222;27.558;2023-07-29T03:32:22;2.28;;;1.90;;
41865;SDS011;27539;43.222;27.558;2023-07-29T03:34:48;1.70;;;1.60;;
41865;SDS011;27539;43.222;27.558;2023-07-29T03:37:13;2.90;;;1.73;;
41865;SDS011;27539;43.222;27.558;2023-07-29T03:39:38;3.03;;;2.22;;
41865;SDS011;27539;43.222;27.558;2023-07-29T03:42:04;2.13;;;1.92;;
41865;SDS011;27539;43.222;27.558;2023-07-29T03:44:30;1.48;;;1.38;;
41865;SDS011;27539;43.222;27.558;2023-07-29T03:46:56;2.38;;;1.85;;
41865;SDS011;27539;43.222;27.558;2023-07-29T03:49:21;2.28;;;1.58;;
41865;SDS011;27539;43.222;27.558;2023-07-29T03:51:47;2.40;;;1.38;;
41865;SDS011;27539;43.222;27.558;2023-07-29T03:54:12;1.67;;;1.58;;
41865;SDS011;27539;43.222;27.558;2023-07-29T03:56:38;4.95;;;1.58;;
41865;SDS011;27539;43.222;27.558;2023-07-29T03:59:04;4.28;;;1.95;;
41865;SDS011;27539;43.222;27.558;2023-07-29T04:01:30;1.23;;;1.13;;
41865;SDS011;27539;43.222;27.558;2023-07-29T04:03:56;2.05;;;1.55;;
41865;SDS011;27539;43.222;27.558;2023-07-29T04:06:22;2.03;;;1.40;;
41865;SDS011;27539;43.222;27.558;2023-07-29T04:08:48;3.88;;;2.25;;
41865;SDS011;27539;43.222;27.558;2023-07-29T04:11:14;1.50;;;1.40;;
41865;SDS011;27539;43.222;27.558;2023-07-29T04:13:39;2.10;;;1.50;;
41865;SDS011;27539;43.222;27.558;2023-07-29T04:16:05;2.53;;;2.13;;
41865;SDS011;27539;43.222;27.558;2023-07-29T04:18:30;2.15;;;1.73;;
41865;SDS011;27539;43.222;27.558;2023-07-29T04:20:56;1.92;;;1.58;;
41865;SDS011;27539;43.222;27.558;2023-07-29T04:23:21;2.00;;;1.77;;
41865;SDS011;27539;43.222;27.558;2023-07-29T04:25:47;5.57;;;1.85;;
41865;SDS011;27539;43.222;27.558;2023-07-29T04:28:13;4.90;;;1.85;;
41865;SDS011;27539;43.222;27.558;2023-07-29T04:30:38;1.55;;;1.45;;
41865;SDS011;27539;43.222;27.558;2023-07-29T04:33:04;2.15;;;1.90;;
41865;SDS011;27539;43.222;27.558;2023-07-29T04:35:29;1.33;;;1.23;;
41865;SDS011;27539;43.222;27.558;2023-07-29T04:37:55;1.85;;;1.35;;
41865;SDS011;27539;43.222;27.558;2023-07-29T04:40:20;1.92;;;1.63;;
41865;SDS011;27539;43.222;27.558;2023-07-29T04:42:47;4.85;;;1.80;;
41865;SDS011;27539;43.222;27.558;2023-07-29T04:45:13;2.88;;;1.65;;
41865;SDS011;27539;43.222;27.558;2023-07-29T04:47:39;1.60;;;1.40;;
41865;SDS011;27539;43.222;27.558;2023-07-29T04:50:04;2.25;;;1.80;;
41865;SDS011;27539;43.222;27.558;2023-07-29T04:52:31;1.88;;;1.58;;
41865;SDS011;27539;43.222;27.558;2023-07-29T04:54:56;1.98;;;1.73;;
41865;SDS011;27539;43.222;27.558;2023-07-29T04:57:22;1.30;;;1.23;;
41865;SDS011;27539;43.222;27.558;2023-07-29T04:59:47;2.05;;;1.58;;
41865;SDS011;27539;43.222;27.558;2023-07-29T05:02:13;1.17;;;1.08;;
41865;SDS011;27539;43.222;27.558;2023-07-29T05:04:38;5.88;;;1.50;;
41865;SDS011;27539;43.222;27.558;2023-07-29T05:07:04;1.08;;;1.05;;
41865;SDS011;27539;43.222;27.558;2023-07-29T05:09:29;3.65;;;2.30;;
41865;SDS011;27539;43.222;27.558;2023-07-29T05:11:55;2.13;;;1.40;;
41865;SDS011;27539;43.222;27.558;2023-07-29T05:14:20;0.95;;;0.93;;
41865;SDS011;27539;43.222;27.558;2023-07-29T05:16:46;2.65;;;1.23;;
41865;SDS011;27539;43.222;27.558;2023-07-29T05:19:11;1.58;;;1.25;;
41865;SDS011;27539;43.222;27.558;2023-07-29T05:21:37;0.98;;;0.95;;
41865;SDS011;27539;43.222;27.558;2023-07-29T05:24:03;1.35;;;1.25;;
41865;SDS011;27539;43.222;27.558;2023-07-29T05:26:28;1.98;;;1.23;;
41865;SDS011;27539;43.222;27.558;2023-07-29T05:28:54;1.00;;;1.00;;
41865;SDS011;27539;43.222;27.558;2023-07-29T05:31:19;1.08;;;0.98;;
41865;SDS011;27539;43.222;27.558;2023-07-29T05:33:45;1.05;;;1.02;;
41865;SDS011;27539;43.222;27.558;2023-07-29T05:36:10;0.90;;;0.90;;
41865;SDS011;27539;43.222;27.558;2023-07-29T05:38:36;1.13;;;1.02;;
41865;SDS011;27539;43.222;27.558;2023-07-29T05:41:01;1.00;;;0.88;;
41865;SDS011;27539;43.222;27.558;2023-07-29T05:43:27;1.07;;;0.77;;
41865;SDS011;27539;43.222;27.558;2023-07-29T05:45:52;2.53;;;1.00;;
41865;SDS011;27539;43.222;27.558;2023-07-29T05:48:19;0.77;;;0.77;;
41865;SDS011;27539;43.222;27.558;2023-07-29T05:50:45;0.68;;;0.63;;
41865;SDS011;27539;43.222;27.558;2023-07-29T05:53:10;0.90;;;0.90;;
41865;SDS011;27539;43.222;27.558;2023-07-29T05:55:36;1.13;;;0.88;;
41865;SDS011;27539;43.222;27.558;2023-07-29T05:58:01;2.03;;;0.93;;
41865;SDS011;27539;43.222;27.558;2023-07-29T06:00:26;0.50;;;0.50;;
41865;SDS011;27539;43.222;27.558;2023-07-29T06:02:52;2.47;;;1.02;;
41865;SDS011;27539;43.222;27.558;2023-07-29T06:05:17;2.70;;;0.60;;
41865;SDS011;27539;43.222;27.558;2023-07-29T06:07:43;0.40;;;0.40;;
41865;SDS011;27539;43.222;27.558;2023-07-29T06:10:10;0.55;;;0.45;;
41865;SDS011;27539;43.222;27.558;2023-07-29T06:12:38;0.65;;;0.65;;
41865;SDS011;27539;43.222;27.558;2023-07-29T06:15:04;0.97;;;0.87;;
41865;SDS011;27539;43.222;27.558;2023-07-29T06:17:30;1.30;;;0.60;;
41865;SDS011;27539;43.222;27.558;2023-07-29T06:19:55;0.60;;;0.60;;
41865;SDS011;27539;43.222;27.558;2023-07-29T06:22:20;0.83;;;0.80;;
41865;SDS011;27539;43.222;27.558;2023-07-29T06:24:46;0.77;;;0.50;;
41865;SDS011;27539;43.222;27.558;2023-07-29T06:27:11;0.70;;;0.60;;
41865;SDS011;27539;43.222;27.558;2023-07-29T06:29:37;0.67;;;0.67;;
41865;SDS011;27539;43.222;27.558;2023-07-29T06:32:03;1.93;;;0.90;;
41865;SDS011;27539;43.222;27.558;2023-07-29T06:34:28;0.70;;;0.70;;
41865;SDS011;27539;43.222;27.558;2023-07-29T06:36:54;0.73;;;0.70;;
41865;SDS011;27539;43.222;27.558;2023-07-29T06:39:19;0.47;;;0.43;;
41865;SDS011;27539;43.222;27.558;2023-07-29T06:41:45;0.60;;;0.60;;
41865;SDS011;27539;43.222;27.558;2023-07-29T06:44:10;0.50;;;0.50;;
41865;SDS011;27539;43.222;27.558;2023-07-29T06:46:36;2.13;;;0.83;;
41865;SDS011;27539;43.222;27.558;2023-07-29T06:49:01;0.57;;;0.53;;
41865;SDS011;27539;43.222;27.558;2023-07-29T06:51:27;1.00;;;0.90;;
41865;SDS011;27539;43.222;27.558;2023-07-29T06:53:57;0.40;;;0.40;;
41865;SDS011;27539;43.222;27.558;2023-07-29T06:56:22;0.50;;;0.50;;
41865;SDS011;27539;43.222;27.558;2023-07-29T06:58:48;0.63;;;0.63;;
41865;SDS011;27539;43.222;27.558;2023-07-29T07:01:13;1.07;;;0.83;;
41865;SDS011;27539;43.222;27.558;2023-07-29T07:03:39;0.67;;;0.63;;
41865;SDS011;27539;43.222;27.558;2023-07-29T07:06:04;0.60;;;0.50;;
41865;SDS011;27539;43.222;27.558;2023-07-29T07:08:30;3.50;;;0.77;;
41865;SDS011;27539;43.222;27.558;2023-07-29T07:10:56;1.10;;;0.73;;
41865;SDS011;27539;43.222;27.558;2023-07-29T07:13:21;1.17;;;0.77;;
41865;SDS011;27539;43.222;27.558;2023-07-29T07:15:47;1.33;;;1.07;;
41865;SDS011;27539;43.222;27.558;2023-07-29T07:18:13;8.97;;;0.90;;
41865;SDS011;27539;43.222;27.558;2023-07-29T07:20:38;1.80;;;1.20;;
41865;SDS011;27539;43.222;27.558;2023-07-29T07:23:04;1.07;;;0.97;;
41865;SDS011;27539;43.222;27.558;2023-07-29T07:25:30;3.83;;;1.02;;
41865;SDS011;27539;43.222;27.558;2023-07-29T07:27:56;5.75;;;0.63;;
41865;SDS011;27539;43.222;27.558;2023-07-29T07:30:22;2.23;;;0.90;;
41865;SDS011;27539;43.222;27.558;2023-07-29T07:32:47;0.67;;;0.63;;
41865;SDS011;27539;43.222;27.558;2023-07-29T07:35:13;0.63;;;0.60;;
41865;SDS011;27539;43.222;27.558;2023-07-29T07:37:38;0.60;;;0.60;;
41865;SDS011;27539;43.222;27.558;2023-07-29T07:40:04;0.90;;;0.77;;
41865;SDS011;27539;43.222;27.558;2023-07-29T07:42:30;0.88;;;0.88;;
41865;SDS011;27539;43.222;27.558;2023-07-29T07:44:55;1.63;;;1.10;;
41865;SDS011;27539;43.222;27.558;2023-07-29T07:47:21;0.77;;;0.73;;
41865;SDS011;27539;43.222;27.558;2023-07-29T07:49:46;1.17;;;1.07;;
41865;SDS011;27539;43.222;27.558;2023-07-29T07:52:14;0.90;;;0.68;;
41865;SDS011;27539;43.222;27.558;2023-07-29T07:54:39;1.20;;;0.87;;
41865;SDS011;27539;43.222;27.558;2023-07-29T07:57:05;0.50;;;0.50;;
41865;SDS011;27539;43.222;27.558;2023-07-29T07:59:31;0.40;;;0.40;;
41865;SDS011;27539;43.222;27.558;2023-07-29T08:01:56;2.03;;;0.50;;
41865;SDS011;27539;43.222;27.558;2023-07-29T08:04:21;0.60;;;0.60;;
41865;SDS011;27539;43.222;27.558;2023-07-29T08:06:47;0.87;;;0.77;;
41865;SDS011;27539;43.222;27.558;2023-07-29T08:09:12;0.50;;;0.50;;
41865;SDS011;27539;43.222;27.558;2023-07-29T08:11:38;0.80;;;0.80;;
41865;SDS011;27539;43.222;27.558;2023-07-29T08:14:03;0.80;;;0.80;;
41865;SDS011;27539;43.222;27.558;2023-07-29T08:16:29;0.53;;;0.53;;
41865;SDS011;27539;43.222;27.558;2023-07-29T08:18:54;0.83;;;0.40;;
41865;SDS011;27539;43.222;27.558;2023-07-29T08:21:19;2.10;;;0.87;;
41865;SDS011;27539;43.222;27.558;2023-07-29T08:23:45;0.73;;;0.50;;
41865;SDS011;27539;43.222;27.558;2023-07-29T08:26:10;1.23;;;0.70;;
41865;SDS011;27539;43.222;27.558;2023-07-29T08:28:39;0.60;;;0.50;;
41865;SDS011;27539;43.222;27.558;2023-07-29T08:31:05;0.30;;;0.30;;
41865;SDS011;27539;43.222;27.558;2023-07-29T08:33:31;0.35;;;0.30;;
41865;SDS011;27539;43.222;27.558;2023-07-29T08:35:58;0.80;;;0.60;;
41865;SDS011;27539;43.222;27.558;2023-07-29T08:38:24;4.60;;;0.50;;
41865;SDS011;27539;43.222;27.558;2023-07-29T08:40:55;0.65;;;0.47;;
41865;SDS011;27539;43.222;27.558;2023-07-29T08:43:30;0.50;;;0.50;;
41865;SDS011;27539;43.222;27.558;2023-07-29T08:45:57;0.52;;;0.52;;
41865;SDS011;27539;43.222;27.558;2023-07-29T08:48:25;0.52;;;0.47;;
41865;SDS011;27539;43.222;27.558;2023-07-29T08:51:04;0.50;;;0.50;;
41865;SDS011;27539;43.222;27.558;2023-07-29T08:53:31;0.82;;;0.60;;
41865;SDS011;27539;43.222;27.558;2023-07-29T08:55:57;2.87;;;0.60;;
41865;SDS011;27539;43.222;27.558;2023-07-29T08:58:23;0.45;;;0.45;;
41865;SDS011;27539;43.222;27.558;2023-07-29T09:00:49;2.75;;;0.40;;
41865;SDS011;27539;43.222;27.558;2023-07-29T09:03:15;0.70;;;0.50;;
41865;SDS011;27539;43.222;27.558;2023-07-29T09:05:41;0.50;;;0.50;;
41865;SDS011;27539;43.222;27.558;2023-07-29T09:08:06;1.27;;;0.67;;
41865;SDS011;27539;43.222;27.558;2023-07-29T09:10:36;0.60;;;0.60;;
41865;SDS011;27539;43.222;27.558;2023-07-29T09:13:02;0.55;;;0.50;;
41865;SDS011;27539;43.222;27.558;2023-07-29T09:15:29;2.58;;;0.55;;
41865;SDS011;27539;43.222;27.558;2023-07-29T09:17:56;0.63;;;0.63;;
41865;SDS011;27539;43.222;27.558;2023-07-29T09:20:28;1.42;;;0.70;;
41865;SDS011;27539;43.222;27.558;2023-07-29T09:22:54;0.68;;;0.63;;
41865;SDS011;27539;43.222;27.558;2023-07-29T09:25:24;0.52;;;0.43;;
41865;SDS011;27539;43.222;27.558;2023-07-29T09:27:51;0.38;;;0.38;;
41865;SDS011;27539;43.222;27.558;2023-07-29T09:30:16;1.20;;;0.77;;
41865;SDS011;27539;43.222;27.558;2023-07-29T09:32:42;1.50;;;0.87;;
41865;SDS011;27539;43.222;27.558;2023-07-29T09:35:13;0.67;;;0.60;;
41865;SDS011;27539;43.222;27.558;2023-07-29T09:37:39;0.90;;;0.65;;
41865;SDS011;27539;43.222;27.558;2023-07-29T09:40:12;0.77;;;0.70;;
41865;SDS011;27539;43.222;27.558;2023-07-29T09:42:40;0.63;;;0.47;;
41865;SDS011;27539;43.222;27.558;2023-07-29T09:45:14;0.40;;;0.40;;
41865;SDS011;27539;43.222;27.558;2023-07-29T09:47:45;1.75;;;0.65;;
41865;SDS011;27539;43.222;27.558;2023-07-29T09:50:11;0.30;;;0.30;;
41865;SDS011;27539;43.222;27.558;2023-07-29T09:52:37;0.97;;;0.50;;
41865;SDS011;27539;43.222;27.558;2023-07-29T09:55:02;0.57;;;0.47;;
41865;SDS011;27539;43.222;27.558;2023-07-29T09:57:28;1.25;;;0.75;;
41865;SDS011;27539;43.222;27.558;2023-07-29T09:59:55;0.40;;;0.40;;
41865;SDS011;27539;43.222;27.558;2023-07-29T10:04:47;0.35;;;0.30;;
41865;SDS011;27539;43.222;27.558;2023-07-29T10:07:14;0.85;;;0.60;;
41865;SDS011;27539;43.222;27.558;2023-07-29T10:09:40;0.55;;;0.45;;
41865;SDS011;27539;43.222;27.558;2023-07-29T10:12:08;0.25;;;0.25;;
41865;SDS011;27539;43.222;27.558;2023-07-29T10:14:37;0.47;;;0.47;;
41865;SDS011;27539;43.222;27.558;2023-07-29T10:17:04;0.52;;;0.35;;
41865;SDS011;27539;43.222;27.558;2023-07-29T10:19:30;0.75;;;0.57;;
41865;SDS011;27539;43.222;27.558;2023-07-29T10:21:56;0.40;;;0.40;;
41865;SDS011;27539;43.222;27.558;2023-07-29T10:24:31;2.33;;;0.47;;
41865;SDS011;27539;43.222;27.558;2023-07-29T10:26:58;0.60;;;0.60;;
41865;SDS011;27539;43.222;27.558;2023-07-29T10:29:33;0.50;;;0.50;;
41865;SDS011;27539;43.222;27.558;2023-07-29T10:32:03;0.40;;;0.35;;
41865;SDS011;27539;43.222;27.558;2023-07-29T10:34:30;0.50;;;0.50;;
41865;SDS011;27539;43.222;27.558;2023-07-29T10:36:57;0.77;;;0.63;;
41865;SDS011;27539;43.222;27.558;2023-07-29T10:39:24;1.17;;;0.50;;
41865;SDS011;27539;43.222;27.558;2023-07-29T10:42:01;0.82;;;0.65;;
41865;SDS011;27539;43.222;27.558;2023-07-29T10:49:43;0.63;;;0.50;;
41865;SDS011;27539;43.222;27.558;2023-07-29T10:52:16;0.45;;;0.45;;
41865;SDS011;27539;43.222;27.558;2023-07-29T10:54:52;0.50;;;0.40;;
41865;SDS011;27539;43.222;27.558;2023-07-29T10:57:51;1.47;;;0.50;;
41865;SDS011;27539;43.222;27.558;2023-07-29T11:00:10;3.83;;;0.73;;
41865;SDS011;27539;43.222;27.558;2023-07-29T11:02:36;1.27;;;0.77;;
41865;SDS011;27539;43.222;27.558;2023-07-29T11:05:15;0.52;;;0.47;;
41865;SDS011;27539;43.222;27.558;2023-07-29T11:07:48;1.15;;;0.50;;
41865;SDS011;27539;43.222;27.558;2023-07-29T11:10:14;0.50;;;0.43;;
41865;SDS011;27539;43.222;27.558;2023-07-29T11:12:41;0.50;;;0.50;;
41865;SDS011;27539;43.222;27.558;2023-07-29T11:17:42;0.60;;;0.45;;
41865;SDS011;27539;43.222;27.558;2023-07-29T11:20:30;0.38;;;0.38;;
41865;SDS011;27539;43.222;27.558;2023-07-29T11:22:58;0.50;;;0.50;;
41865;SDS011;27539;43.222;27.558;2023-07-29T11:25:26;0.57;;;0.57;;
41865;SDS011;27539;43.222;27.558;2023-07-29T11:27:53;0.47;;;0.40;;
41865;SDS011;27539;43.222;27.558;2023-07-29T11:30:19;0.45;;;0.40;;
41865;SDS011;27539;43.222;27.558;2023-07-29T11:32:45;0.80;;;0.38;;
41865;SDS011;27539;43.222;27.558;2023-07-29T11:37:39;0.60;;;0.55;;
41865;SDS011;27539;43.222;27.558;2023-07-29T11:40:06;0.40;;;0.40;;
41865;SDS011;27539;43.222;27.558;2023-07-29T11:42:34;0.38;;;0.32;;
41865;SDS011;27539;43.222;27.558;2023-07-29T11:45:00;0.50;;;0.50;;
41865;SDS011;27539;43.222;27.558;2023-07-29T11:47:27;0.28;;;0.28;;
41865;SDS011;27539;43.222;27.558;2023-07-29T11:49:52;2.07;;;0.50;;
41865;SDS011;27539;43.222;27.558;2023-07-29T11:52:18;0.20;;;0.20;;
41865;SDS011;27539;43.222;27.558;2023-07-29T11:54:48;0.40;;;0.38;;
41865;SDS011;27539;43.222;27.558;2023-07-29T11:57:14;0.47;;;0.43;;
41865;SDS011;27539;43.222;27.558;2023-07-29T11:59:41;0.30;;;0.30;;
41865;SDS011;27539;43.222;27.558;2023-07-29T12:02:17;0.52;;;0.52;;
41865;SDS011;27539;43.222;27.558;2023-07-29T12:04:44;0.40;;;0.40;;
41865;SDS011;27539;43.222;27.558;2023-07-29T12:07:12;0.32;;;0.32;;
41865;SDS011;27539;43.222;27.558;2023-07-29T12:09:40;1.02;;;0.65;;
41865;SDS011;27539;43.222;27.558;2023-07-29T12:12:07;0.30;;;0.30;;
41865;SDS011;27539;43.222;27.558;2023-07-29T12:14:33;0.40;;;0.30;;
41865;SDS011;27539;43.222;27.558;2023-07-29T12:17:04;0.32;;;0.32;;
41865;SDS011;27539;43.222;27.558;2023-07-29T12:19:34;0.32;;;0.30;;
41865;SDS011;27539;43.222;27.558;2023-07-29T12:22:01;0.38;;;0.38;;
41865;SDS011;27539;43.222;27.558;2023-07-29T12:24:29;1.58;;;0.47;;
41865;SDS011;27539;43.222;27.558;2023-07-29T12:26:59;0.82;;;0.52;;
41865;SDS011;27539;43.222;27.558;2023-07-29T12:29:25;0.25;;;0.25;;
41865;SDS011;27539;43.222;27.558;2023-07-29T12:31:57;0.35;;;0.35;;
41865;SDS011;27539;43.222;27.558;2023-07-29T12:34:27;0.38;;;0.30;;
41865;SDS011;27539;43.222;27.558;2023-07-29T12:36:54;0.75;;;0.45;;
41865;SDS011;27539;43.222;27.558;2023-07-29T12:39:27;0.10;;;0.10;;
41865;SDS011;27539;43.222;27.558;2023-07-29T12:41:55;1.35;;;0.73;;
41865;SDS011;27539;43.222;27.558;2023-07-29T12:44:23;0.52;;;0.52;;
41865;SDS011;27539;43.222;27.558;2023-07-29T12:46:49;0.35;;;0.35;;
41865;SDS011;27539;43.222;27.558;2023-07-29T12:49:15;0.10;;;0.10;;
41865;SDS011;27539;43.222;27.558;2023-07-29T12:54:07;0.43;;;0.38;;
41865;SDS011;27539;43.222;27.558;2023-07-29T12:56:33;0.67;;;0.40;;
41865;SDS011;27539;43.222;27.558;2023-07-29T12:58:59;0.60;;;0.47;;
41865;SDS011;27539;43.222;27.558;2023-07-29T13:01:26;0.82;;;0.43;;
41865;SDS011;27539;43.222;27.558;2023-07-29T13:03:52;0.40;;;0.40;;
41865;SDS011;27539;43.222;27.558;2023-07-29T13:06:18;0.73;;;0.40;;
41865;SDS011;27539;43.222;27.558;2023-07-29T13:08:44;0.20;;;0.20;;
41865;SDS011;27539;43.222;27.558;2023-07-29T13:13:35;0.40;;;0.40;;
41865;SDS011;27539;43.222;27.558;2023-07-29T13:16:00;0.50;;;0.47;;
41865;SDS011;27539;43.222;27.558;2023-07-29T13:18:26;0.60;;;0.60;;
41865;SDS011;27539;43.222;27.558;2023-07-29T13:20:52;0.77;;;0.60;;
41865;SDS011;27539;43.222;27.558;2023-07-29T13:23:18;0.68;;;0.68;;
41865;SDS011;27539;43.222;27.558;2023-07-29T13:25:43;0.83;;;0.60;;
41865;SDS011;27539;43.222;27.558;2023-07-29T13:28:09;0.40;;;0.40;;
41865;SDS011;27539;43.222;27.558;2023-07-29T13:30:35;0.73;;;0.55;;
41865;SDS011;27539;43.222;27.558;2023-07-29T13:33:01;0.40;;;0.40;;
41865;SDS011;27539;43.222;27.558;2023-07-29T13:35:26;0.50;;;0.40;;
41865;SDS011;27539;43.222;27.558;2023-07-29T13:37:52;1.08;;;0.77;;
41865;SDS011;27539;43.222;27.558;2023-07-29T13:40:18;0.50;;;0.50;;
41865;SDS011;27539;43.222;27.558;2023-07-29T13:42:43;0.63;;;0.47;;
41865;SDS011;27539;43.222;27.558;2023-07-29T13:45:09;0.40;;;0.40;;
41865;SDS011;27539;43.222;27.558;2023-07-29T13:47:35;0.87;;;0.47;;
41865;SDS011;27539;43.222;27.558;2023-07-29T13:50:00;1.17;;;0.70;;
41865;SDS011;27539;43.222;27.558;2023-07-29T13:52:26;2.33;;;0.52;;
41865;SDS011;27539;43.222;27.558;2023-07-29T13:54:52;0.67;;;0.50;;
41865;SDS011;27539;43.222;27.558;2023-07-29T13:57:17;1.63;;;0.73;;
41865;SDS011;27539;43.222;27.558;2023-07-29T13:59:43;0.33;;;0.30;;
41865;SDS011;27539;43.222;27.558;2023-07-29T14:02:08;0.30;;;0.30;;
41865;SDS011;27539;43.222;27.558;2023-07-29T14:04:34;0.53;;;0.40;;
41865;SDS011;27539;43.222;27.558;2023-07-29T14:06:59;0.30;;;0.30;;
41865;SDS011;27539;43.222;27.558;2023-07-29T14:09:25;1.00;;;0.60;;
41865;SDS011;27539;43.222;27.558;2023-07-29T14:14:17;0.28;;;0.28;;
41865;SDS011;27539;43.222;27.558;2023-07-29T14:16:42;0.30;;;0.30;;
41865;SDS011;27539;43.222;27.558;2023-07-29T14:19:08;0.52;;;0.52;;
41865;SDS011;27539;43.222;27.558;2023-07-29T14:21:34;0.50;;;0.50;;
41865;SDS011;27539;43.222;27.558;2023-07-29T14:23:59;0.67;;;0.67;;
41865;SDS011;27539;43.222;27.558;2023-07-29T14:26:25;0.77;;;0.73;;
41865;SDS011;27539;43.222;27.558;2023-07-29T14:28:52;0.40;;;0.40;;
41865;SDS011;27539;43.222;27.558;2023-07-29T14:31:17;0.63;;;0.53;;
41865;SDS011;27539;43.222;27.558;2023-07-29T14:33:43;0.93;;;0.63;;
41865;SDS011;27539;43.222;27.558;2023-07-29T14:36:09;0.38;;;0.38;;
41865;SDS011;27539;43.222;27.558;2023-07-29T14:38:35;0.77;;;0.60;;
41865;SDS011;27539;43.222;27.558;2023-07-29T14:43:26;1.33;;;0.90;;
41865;SDS011;27539;43.222;27.558;2023-07-29T14:45:52;0.63;;;0.63;;
41865;SDS011;27539;43.222;27.558;2023-07-29T14:48:17;0.40;;;0.40;;
41865;SDS011;27539;43.222;27.558;2023-07-29T14:50:43;1.07;;;0.77;;
41865;SDS011;27539;43.222;27.558;2023-07-29T14:53:09;0.40;;;0.40;;
41865;SDS011;27539;43.222;27.558;2023-07-29T14:58:01;1.02;;;0.77;;
41865;SDS011;27539;43.222;27.558;2023-07-29T15:00:27;1.53;;;1.00;;